Roswell, New Mexico
Current Conditions -  °F | °C
As of 6:51 AM on Monday 22 Dec 2014 (Local Time) from KROW Reporting Station
Clear Clear  
Wind Chill: 63°   Ceiling: Unl
Heat Index: 63°   Visibility: 10mi
Dew Point: 28°   Wind: 24mph
Humidity: 27%   Direction: 280°W
Pressure: 29.75"   Gusts: 31mph
Location:  33.39°N, 104.52°W
Report Text: KROW 221351Z 28021G27KT 10SM CLR 17/M02 A2975 RMK AO2 PK WND 30030/1335 PRESFR SLP029 T01721022
Loading
Personal Weather Stations






























Interactive Weather Map New forecast layout! Learn more

10-Day Weather Forecast

Advertisements
Track Severe Weather on mobile